Plymouth, Illinois
Current Conditions -  °F | °C
As of 3:35 PM on Wednesday 17 Dec 2014 (Local Time) from KMQB Reporting Station
Clear Clear  
Wind Chill: 20°   Ceiling: Unl
Heat Index: 28°   Visibility: 10mi
Dew Point: 21°   Wind: 7mph
Humidity: 75%   Direction: 290°WNW
Pressure: 30.3"   Gusts: NA
Location:  40.29°N, 90.92°W
Report Text: KMQB 172135Z AUTO 29006KT 10SM CLR M02/M06 A3030 RMK AO2 T10241063
Loading
Personal Weather Stations






























Interactive Weather Map New forecast layout! Learn more

10-Day Weather Forecast

Advertisements
Track Severe Weather on mobile